Time;durP1;ratioP1;P1;durP2;ratioP2;P2;SDS_P1;SDS_P2;PMS_P1;PMS_P2;Temp;Humidity;BMP_temperature;BMP_pressure;BME280_temperature;BME280_humidity;BME280_pressure;Samples;Min_cycle;Max_cycle;Signal;HPM_P1;HPM_P2
2022/05/21 00:01:33;;;;;;;1999.90;999.90;;;13.00;99.90;;;;;;5033268;28;20882;-70
2022/05/21 00:03:59;;;;;;;1999.90;999.90;;;13.00;99.90;;;;;;5033060;28;20163;-70
2022/05/21 00:06:25;;;;;;;1999.90;999.90;;;13.00;99.90;;;;;;5033172;28;20176;-70
2022/05/21 00:08:51;;;;;;;1999.90;999.90;;;13.00;99.90;;;;;;5033130;28;20239;-70
2022/05/21 00:11:17;;;;;;;1999.90;999.90;;;12.90;99.90;;;;;;5033055;28;20498;-70
2022/05/21 00:13:44;;;;;;;1999.90;999.90;;;12.90;99.90;;;;;;5033028;28;20509;-70
2022/05/21 00:16:10;;;;;;;1999.90;999.90;;;12.90;99.90;;;;;;5032692;28;20512;-70
2022/05/21 00:18:35;;;;;;;1999.90;999.90;;;12.90;99.90;;;;;;5032964;28;20925;-70
2022/05/21 00:21:01;;;;;;;1999.90;999.90;;;12.80;99.90;;;;;;5032939;28;20252;-69
2022/05/21 00:23:32;;;;;;;1999.90;999.90;;;12.80;99.90;;;;;;5032858;28;20627;-70
2022/05/21 00:26:01;;;;;;;1999.90;999.90;;;12.80;99.90;;;;;;5032596;28;20166;-70
2022/05/21 00:28:27;;;;;;;1999.90;999.90;;;12.70;99.90;;;;;;5032430;28;21014;-70
2022/05/21 00:30:53;;;;;;;1999.90;999.90;;;12.70;99.90;;;;;;5032717;28;20488;-70
2022/05/21 00:33:19;;;;;;;1999.90;999.90;;;12.70;99.90;;;;;;5032624;28;20440;-70
2022/05/21 00:35:48;;;;;;;1999.90;999.90;;;12.80;99.90;;;;;;5032232;28;20606;-70
2022/05/21 00:38:14;;;;;;;1999.90;999.90;;;12.80;99.90;;;;;;5032587;28;20451;-70
2022/05/21 00:40:40;;;;;;;1999.90;999.90;;;12.80;99.90;;;;;;5032553;28;20426;-70
2022/05/21 00:43:26;;;;;;;1999.90;999.90;;;12.80;99.90;;;;;;5031646;28;20250;-70
2022/05/21 00:45:52;;;;;;;1999.90;999.90;;;12.80;99.90;;;;;;5032090;28;20442;-70
2022/05/21 00:48:17;;;;;;;1999.90;999.90;;;12.80;99.90;;;;;;5032387;28;20420;-70
2022/05/21 00:50:43;;;;;;;1999.90;999.90;;;12.80;99.90;;;;;;5032396;28;20573;-70
2022/05/21 00:53:10;;;;;;;1999.90;999.90;;;12.80;99.90;;;;;;5032401;28;20180;-70
2022/05/21 00:55:36;;;;;;;1999.90;999.90;;;12.70;99.90;;;;;;5032013;28;20197;-70
2022/05/21 01:00:51;;;;;;;1999.90;999.90;;;12.70;99.90;;;;;;5032325;28;20185;-70
2022/05/21 01:03:17;;;;;;;1999.90;999.90;;;12.70;99.90;;;;;;5032284;28;20404;-70
2022/05/21 01:05:46;;;;;;;1999.90;999.90;;;12.60;99.90;;;;;;5031879;28;20407;-70
2022/05/21 01:08:12;;;;;;;1999.90;999.90;;;12.70;99.90;;;;;;5032278;28;20802;-70
2022/05/21 01:10:45;;;;;;;1999.90;999.90;;;12.70;99.90;;;;;;5032086;28;20426;-69
2022/05/21 01:13:15;;;;;;;1999.90;999.90;;;12.70;99.90;;;;;;5032120;28;20938;-69
2022/05/21 01:15:44;;;;;;;1999.90;999.90;;;12.70;99.90;;;;;;5031726;28;20480;-69
2022/05/21 01:18:10;;;;;;;1999.90;999.90;;;12.70;99.90;;;;;;5031921;28;20801;-68
2022/05/21 01:20:36;;;;;;;1999.90;999.90;;;12.70;99.90;;;;;;5031984;28;20399;-69
2022/05/21 01:23:02;;;;;;;1999.90;999.90;;;12.70;99.90;;;;;;5032007;28;20408;-69
2022/05/21 01:25:31;;;;;;;1999.90;999.90;;;12.70;99.90;;;;;;5031659;28;20202;-69
2022/05/21 01:27:58;;;;;;;1999.90;999.90;;;12.70;99.90;;;;;;5031740;28;20476;-69
2022/05/21 01:30:36;;;;;;;1999.90;999.90;;;12.70;99.90;;;;;;5031891;28;20404;-69
2022/05/21 01:33:04;;;;;;;1999.90;999.90;;;12.70;99.90;;;;;;5031889;28;20395;-69
2022/05/21 01:35:30;;;;;;;1999.90;999.90;;;12.70;99.90;;;;;;5031624;28;20542;-69
2022/05/21 01:37:56;;;;;;;1999.90;999.90;;;12.60;99.90;;;;;;5031782;28;20511;-69
2022/05/21 01:40:22;;;;;;;1999.90;999.90;;;12.60;99.90;;;;;;5031916;28;20234;-69
2022/05/21 01:44:37;;;;;;;1999.90;999.90;;;12.60;99.90;;;;;;5031793;28;20890;-69
2022/05/21 01:45:34;;;;;;;1999.90;999.90;;;12.50;99.90;;;;;;5031290;28;20173;-69
2022/05/21 01:48:02;;;;;;;1999.90;999.90;;;12.60;99.90;;;;;;5031737;28;20475;-69
2022/05/21 01:50:28;;;;;;;1999.90;999.90;;;12.60;99.90;;;;;;5031744;28;20400;-69
2022/05/21 01:52:53;;;;;;;1999.90;999.90;;;12.60;99.90;;;;;;5031776;28;20774;-69
2022/05/21 01:55:19;;;;;;;1999.90;999.90;;;12.50;99.90;;;;;;5035271;28;20452;-69
2022/05/21 01:57:44;;;;;;;1999.90;999.90;;;12.50;99.90;;;;;;5035499;28;20626;-69
2022/05/21 02:00:11;;;;;;;1999.90;999.90;;;12.50;99.90;;;;;;5035643;28;20180;-69
2022/05/21 02:02:36;;;;;;;1999.90;999.90;;;12.50;99.90;;;;;;5035588;28;20165;-69
2022/05/21 02:05:02;;;;;;;1999.90;999.90;;;12.60;99.90;;;;;;5035221;28;20902;-69
2022/05/21 02:07:27;;;;;;;1999.90;999.90;;;12.70;99.90;;;;;;5035497;28;20176;-69
2022/05/21 02:09:53;;;;;;;1999.90;999.90;;;12.70;99.90;;;;;;5035338;28;20446;-69
2022/05/21 02:12:19;;;;;;;1999.90;999.90;;;12.80;99.90;;;;;;5035285;28;20540;-69
2022/05/21 02:14:45;;;;;;;1999.90;999.90;;;12.80;99.90;;;;;;5034963;28;20189;-69
2022/05/21 02:17:10;;;;;;;1999.90;999.90;;;12.90;99.90;;;;;;5035319;28;20405;-69
2022/05/21 02:19:36;;;;;;;1999.90;999.90;;;12.90;99.90;;;;;;5035188;28;20189;-69
2022/05/21 02:22:02;;;;;;;1999.90;999.90;;;12.80;99.90;;;;;;5035224;28;20176;-69
2022/05/21 02:24:27;;;;;;;1999.90;999.90;;;12.80;99.90;;;;;;5034872;28;20690;-69
2022/05/21 02:26:53;;;;;;;1999.90;999.90;;;12.80;99.90;;;;;;5035045;28;20177;-69
2022/05/21 02:29:19;;;;;;;1999.90;999.90;;;12.70;99.90;;;;;;5034846;28;20197;-69
2022/05/21 02:31:44;;;;;;;1999.90;999.90;;;12.70;99.90;;;;;;5050996;22;20220;-70
2022/05/21 02:34:10;;;;;;;1999.90;999.90;;;12.70;99.90;;;;;;5034834;28;20520;-70
2022/05/21 02:39:30;;;;;;;1999.90;999.90;;;12.60;99.90;;;;;;5034866;28;20234;-70
2022/05/21 02:42:00;;;;;;;1999.90;999.90;;;12.60;99.90;;;;;;5034761;28;20462;-70
2022/05/21 02:44:26;;;;;;;1999.90;999.90;;;12.50;99.90;;;;;;5034429;28;20935;-70
2022/05/21 02:46:52;;;;;;;1999.90;999.90;;;12.50;99.90;;;;;;5034716;28;20419;-70
2022/05/21 02:49:17;;;;;;;1999.90;999.90;;;12.50;99.90;;;;;;5034712;28;20419;-70
2022/05/21 02:51:43;;;;;;;1999.90;999.90;;;12.40;99.90;;;;;;5034510;28;20452;-71
2022/05/21 02:54:14;;;;;;;1999.90;999.90;;;12.50;99.90;;;;;;5034296;28;20227;-70
2022/05/21 02:56:48;;;;;;;1999.90;999.90;;;12.50;99.90;;;;;;5034482;28;20212;-70
2022/05/21 02:59:14;;;;;;;1999.90;999.90;;;12.60;99.90;;;;;;5034546;28;21022;-70
2022/05/21 03:01:40;;;;;;;1999.90;999.90;;;12.60;99.90;;;;;;5034416;28;20956;-70
2022/05/21 03:04:07;;;;;;;1999.90;999.90;;;12.70;99.90;;;;;;5034095;28;20404;-70
2022/05/21 03:06:34;;;;;;;1999.90;999.90;;;12.70;99.90;;;;;;5033400;28;20658;-70
2022/05/21 03:11:43;;;;;;;1999.90;999.90;;;12.80;99.90;;;;;;5034261;28;20436;-70
2022/05/21 03:14:09;;;;;;;1999.90;999.90;;;12.80;99.90;;;;;;5033995;28;20909;-70
2022/05/21 03:16:34;;;;;;;1999.90;999.90;;;12.80;99.90;;;;;;5034075;28;20322;-70
2022/05/21 03:19:00;;;;;;;1999.90;999.90;;;12.80;99.90;;;;;;5034232;28;20180;-70
2022/05/21 03:21:26;;;;;;;1999.90;999.90;;;12.90;99.90;;;;;;5034221;28;20200;-70
2022/05/21 03:23:51;;;;;;;1999.90;999.90;;;12.90;99.90;;;;;;5033995;28;20503;-70
2022/05/21 03:26:17;;;;;;;1999.90;999.90;;;12.90;99.90;;;;;;5033815;28;20176;-70
2022/05/21 03:28:43;;;;;;;1999.90;999.90;;;12.90;99.90;;;;;;5034005;28;20665;-71
2022/05/21 03:31:08;;;;;;;1999.90;999.90;;;12.90;99.90;;;;;;5033768;28;20236;-70
2022/05/21 03:33:34;;;;;;;1999.90;999.90;;;12.90;99.90;;;;;;5033898;28;20275;-70
2022/05/21 03:35:59;;;;;;;1999.90;999.90;;;12.90;99.90;;;;;;5033472;28;20262;-70
2022/05/21 03:38:25;;;;;;;1999.90;999.90;;;12.90;99.90;;;;;;5033795;28;20252;-70
2022/05/21 03:40:50;;;;;;;1999.90;999.90;;;12.90;99.90;;;;;;5033710;28;20598;-70
2022/05/21 03:43:16;;;;;;;1999.90;999.90;;;13.00;99.90;;;;;;5033757;28;20164;-70
2022/05/21 03:45:42;;;;;;;1999.90;999.90;;;13.00;99.90;;;;;;5033367;28;20196;-71
2022/05/21 03:48:07;;;;;;;1999.90;999.90;;;12.90;99.90;;;;;;5033505;28;20176;-70
2022/05/21 03:50:33;;;;;;;1999.90;999.90;;;12.90;99.90;;;;;;5033479;28;20164;-70
2022/05/21 03:53:01;;;;;;;1999.90;999.90;;;12.90;99.90;;;;;;5033461;28;20172;-70
2022/05/21 03:55:26;;;;;;;1999.90;999.90;;;12.90;99.90;;;;;;5033120;28;20188;-70
2022/05/21 03:57:52;;;;;;;1999.90;999.90;;;13.00;99.90;;;;;;5033398;28;20411;-71
2022/05/21 04:00:20;;;;;;;1999.90;999.90;;;12.90;99.90;;;;;;5033388;28;20172;-70
2022/05/21 04:02:46;;;;;;;1999.90;999.90;;;13.00;99.90;;;;;;5033180;28;20588;-71
2022/05/21 04:05:13;;;;;;;1999.90;999.90;;;13.00;99.90;;;;;;5033193;28;20412;-71
2022/05/21 04:07:39;;;;;;;1999.90;999.90;;;13.00;99.90;;;;;;5033216;28;20417;-70
2022/05/21 04:10:07;;;;;;;1999.90;999.90;;;13.00;99.90;;;;;;5033221;28;20439;-70
2022/05/21 04:12:32;;;;;;;1999.90;999.90;;;13.00;99.90;;;;;;5033028;28;20419;-71
2022/05/21 04:14:58;;;;;;;1999.90;999.90;;;12.90;99.90;;;;;;5032660;28;20856;-71
2022/05/21 04:17:24;;;;;;;1999.90;999.90;;;12.90;99.90;;;;;;5032916;28;20173;-71
2022/05/21 04:19:49;;;;;;;1999.90;999.90;;;12.90;99.90;;;;;;5033033;28;20160;-70
2022/05/21 04:22:15;;;;;;;1999.90;999.90;;;12.90;99.90;;;;;;5032895;28;20189;-71
2022/05/21 04:24:40;;;;;;;1999.90;999.90;;;12.80;99.90;;;;;;5032703;28;20518;-70
2022/05/21 04:27:09;;;;;;;1999.90;999.90;;;12.90;99.90;;;;;;5032898;28;20247;-70
2022/05/21 04:29:36;;;;;;;1999.90;999.90;;;12.80;99.90;;;;;;5032719;28;20176;-71
2022/05/21 04:32:01;;;;;;;1999.90;999.90;;;12.80;99.90;;;;;;5032576;28;20501;-71
2022/05/21 04:34:27;;;;;;;1999.90;999.90;;;12.80;99.90;;;;;;5032394;28;20399;-70
2022/05/21 04:36:53;;;;;;;1999.90;999.90;;;12.80;99.90;;;;;;5032604;28;20241;-70
2022/05/21 04:39:18;;;;;;;1999.90;999.90;;;12.80;99.90;;;;;;5032666;28;20170;-71
2022/05/21 04:41:44;;;;;;;1999.90;999.90;;;12.90;99.90;;;;;;5032615;28;20192;-70
2022/05/21 04:44:09;;;;;;;1999.90;999.90;;;12.90;99.90;;;;;;5032328;28;20179;-71
2022/05/21 04:46:35;;;;;;;1999.90;999.90;;;12.90;99.90;;;;;;5032534;28;20179;-70
2022/05/21 04:49:01;;;;;;;1999.90;999.90;;;13.00;99.90;;;;;;5032461;28;20181;-71
2022/05/21 04:51:27;;;;;;;1999.90;999.90;;;13.00;99.90;;;;;;5032396;28;20221;-70
2022/05/21 04:53:53;;;;;;;1999.90;999.90;;;13.00;99.90;;;;;;5032366;28;20415;-71
2022/05/21 04:56:18;;;;;;;1999.90;999.90;;;13.10;99.90;;;;;;5032128;28;20267;-70
2022/05/21 04:58:44;;;;;;;1999.90;999.90;;;13.10;99.90;;;;;;5032308;28;20215;-71
2022/05/21 05:01:10;;;;;;;1999.90;999.90;;;13.10;99.90;;;;;;5032215;28;20538;-71
2022/05/21 05:03:35;;;;;;;1999.90;999.90;;;13.10;99.90;;;;;;5032459;28;20180;-70
2022/05/21 05:06:02;;;;;;;1999.90;999.90;;;13.10;99.90;;;;;;5032005;28;20263;-71
2022/05/21 05:08:27;;;;;;;1999.90;999.90;;;13.20;99.90;;;;;;5032197;28;20639;-71
2022/05/21 05:10:53;;;;;;;1999.90;999.90;;;13.30;99.90;;;;;;5032307;28;20486;-70
2022/05/21 05:13:19;;;;;;;1999.90;999.90;;;13.30;99.90;;;;;;5032094;28;20260;-71
2022/05/21 05:15:46;;;;;;;1999.90;999.90;;;13.30;99.90;;;;;;5031723;28;20209;-71
2022/05/21 05:18:18;;;;;;;1999.90;999.90;;;13.40;99.90;;;;;;5032039;28;20177;-71
2022/05/21 05:20:43;;;;;;;1999.90;999.90;;;13.40;99.90;;;;;;5031964;28;20408;-71
2022/05/21 05:23:10;;;;;;;1999.90;999.90;;;13.40;99.90;;;;;;5032014;28;20415;-71
2022/05/21 05:25:36;;;;;;;1999.90;999.90;;;13.40;99.90;;;;;;5031725;28;20264;-71
2022/05/21 05:28:02;;;;;;;1999.90;999.90;;;13.40;99.90;;;;;;5031378;28;20420;-70
2022/05/21 05:30:28;;;;;;;1999.90;999.90;;;13.40;99.90;;;;;;5031776;28;20416;-71
2022/05/21 05:32:53;;;;;;;1999.90;999.90;;;13.40;99.90;;;;;;5031781;28;20470;-70
2022/05/21 05:35:19;;;;;;;1999.90;999.90;;;13.40;99.90;;;;;;5031701;28;20200;-70
2022/05/21 05:37:45;;;;;;;1999.90;999.90;;;13.40;99.90;;;;;;5032101;28;20744;-70
2022/05/21 05:40:15;;;;;;;1999.90;999.90;;;13.40;99.90;;;;;;5032003;28;20469;-70
2022/05/21 05:42:41;;;;;;;1999.90;999.90;;;13.40;99.90;;;;;;5031819;28;20971;-70
2022/05/21 05:45:08;;;;;;;1999.90;999.90;;;13.40;99.90;;;;;;5031728;28;20417;-70
2022/05/21 05:47:34;;;;;;;1999.90;999.90;;;13.40;99.90;;;;;;5031882;28;20177;-70
2022/05/21 05:50:00;;;;;;;1999.90;999.90;;;13.40;99.90;;;;;;5031952;28;20419;-70
2022/05/21 05:52:27;;;;;;;1999.90;999.90;;;13.50;99.90;;;;;;5031979;28;20198;-70
2022/05/21 05:54:52;;;;;;;1999.90;999.90;;;13.50;99.90;;;;;;5031504;28;20458;-70
2022/05/21 05:57:18;;;;;;;1999.90;999.90;;;13.50;99.90;;;;;;5032087;28;20411;-70
2022/05/21 05:59:50;;;;;;;1999.90;999.90;;;13.50;99.90;;;;;;5031819;28;20495;-70
2022/05/21 06:05:16;;;;;;;1999.90;999.90;;;13.60;99.90;;;;;;5032033;28;20424;-70
2022/05/21 06:07:47;;;;;;;1999.90;999.90;;;13.60;99.90;;;;;;5031738;28;20430;-70
2022/05/21 06:10:16;;;;;;;1999.90;999.90;;;13.60;99.90;;;;;;5031650;28;20424;-70
2022/05/21 06:12:41;;;;;;;1999.90;999.90;;;13.60;99.90;;;;;;5031631;28;20425;-70
2022/05/21 06:15:09;;;;;;;1999.90;999.90;;;13.70;99.90;;;;;;5031343;28;20954;-70
2022/05/21 06:17:36;;;;;;;1999.90;999.90;;;13.80;99.90;;;;;;5031616;28;20175;-70
2022/05/21 06:20:03;;;;;;;1999.90;999.90;;;13.80;99.90;;;;;;5031611;28;20414;-70
2022/05/21 06:22:28;;;;;;;1999.90;999.90;;;13.80;99.90;;;;;;5031835;28;20427;-70
2022/05/21 06:24:54;;;;;;;1999.90;999.90;;;13.90;99.90;;;;;;5031350;28;20927;-70
2022/05/21 06:27:19;;;;;;;1999.90;999.90;;;13.90;99.90;;;;;;5031965;28;20235;-70
2022/05/21 06:29:47;;;;;;;1999.90;999.90;;;13.90;99.90;;;;;;5031442;28;20182;-70
2022/05/21 06:32:12;;;;;;;1999.90;999.90;;;13.90;99.90;;;;;;5031507;28;20223;-70
2022/05/21 06:34:38;;;;;;;1999.90;999.90;;;14.00;99.90;;;;;;5031021;28;20415;-70
2022/05/21 06:37:09;;;;;;;1999.90;999.90;;;14.00;99.90;;;;;;5031630;28;20179;-70
2022/05/21 06:39:36;;;;;;;1999.90;999.90;;;14.10;99.90;;;;;;5031438;28;20175;-70
2022/05/21 06:42:02;;;;;;;1999.90;999.90;;;14.10;99.90;;;;;;5034486;28;20430;-70
2022/05/21 06:44:28;;;;;;;1999.90;999.90;;;14.00;99.90;;;;;;5034903;28;20405;-70
2022/05/21 06:46:55;;;;;;;1999.90;999.90;;;14.10;99.90;;;;;;5034849;28;20418;-70
2022/05/21 06:49:21;;;;;;;1999.90;999.90;;;14.00;99.90;;;;;;5034806;28;20410;-70
2022/05/21 06:51:47;;;;;;;1999.90;999.90;;;14.10;99.90;;;;;;5034680;28;20442;-70
2022/05/21 06:54:12;;;;;;;1999.90;999.90;;;14.10;99.90;;;;;;5034553;28;20419;-70
2022/05/21 06:56:41;;;;;;;1999.90;999.90;;;14.10;99.90;;;;;;5034709;28;20469;-70
2022/05/21 06:59:07;;;;;;;1999.90;999.90;;;14.10;99.90;;;;;;5034690;28;20172;-70
2022/05/21 07:01:32;;;;;;;1999.90;999.90;;;14.10;99.90;;;;;;5034469;28;20430;-70
2022/05/21 07:03:58;;;;;;;1999.90;999.90;;;14.10;99.90;;;;;;5034372;28;20178;-70
2022/05/21 07:09:08;;;;;;;1999.90;999.90;;;14.20;99.90;;;;;;5034879;28;20190;-70
2022/05/21 07:11:34;;;;;;;1999.90;999.90;;;14.30;99.90;;;;;;5034557;28;20435;-70
2022/05/21 07:14:00;;;;;;;1999.90;999.90;;;14.40;99.90;;;;;;5034491;28;20183;-70
2022/05/21 07:16:26;;;;;;;1999.90;999.90;;;14.50;99.90;;;;;;5034400;28;20748;-70
2022/05/21 07:18:51;;;;;;;1999.90;999.90;;;14.60;99.90;;;;;;5034336;28;20413;-70
2022/05/21 07:21:18;;;;;;;1999.90;999.90;;;14.70;99.90;;;;;;5034419;28;20192;-70
2022/05/21 07:23:46;;;;;;;1999.90;999.90;;;14.70;99.90;;;;;;5034389;28;20173;-70
2022/05/21 07:26:12;;;;;;;1999.90;999.90;;;14.80;99.90;;;;;;5034424;28;20409;-70
2022/05/21 07:28:38;;;;;;;1999.90;999.90;;;14.90;99.90;;;;;;5035269;28;20415;-70
2022/05/21 07:31:04;;;;;;;1999.90;999.90;;;15.00;99.90;;;;;;5034880;28;20454;-70
2022/05/21 07:33:30;;;;;;;1999.90;999.90;;;15.00;99.90;;;;;;5034034;28;20188;-70
2022/05/21 07:35:56;;;;;;;1999.90;999.90;;;15.10;99.90;;;;;;5033645;28;20450;-70
2022/05/21 07:38:21;;;;;;;1999.90;999.90;;;15.20;99.90;;;;;;5034085;28;20169;-70
2022/05/21 07:40:48;;;;;;;1999.90;999.90;;;15.40;99.90;;;;;;5033887;28;20431;-70
2022/05/21 07:43:18;;;;;;;1999.90;999.90;;;15.40;99.90;;;;;;5033853;28;20182;-70
2022/05/21 07:45:45;;;;;;;1999.90;999.90;;;15.40;99.90;;;;;;5033442;28;20783;-71
2022/05/21 07:48:13;;;;;;;1999.90;999.90;;;15.50;99.90;;;;;;5033731;28;20412;-71
2022/05/21 07:50:40;;;;;;;1999.90;999.90;;;15.50;99.90;;;;;;5033490;28;20443;-71
2022/05/21 07:53:33;;;;;;;1999.90;999.90;;;15.50;99.90;;;;;;5033420;28;20407;-71
2022/05/21 07:55:59;;;;;;;1999.90;999.90;;;15.50;99.90;;;;;;5030256;28;20489;-70
2022/05/21 07:58:28;;;;;;;1999.90;999.90;;;15.70;99.90;;;;;;5033578;28;20409;-71
2022/05/21 08:00:55;;;;;;;1999.90;999.90;;;15.80;99.90;;;;;;5030762;28;20747;-70
2022/05/21 08:03:21;;;;;;;1999.90;999.90;;;15.80;99.90;;;;;;5032015;28;20496;-72
2022/05/21 08:05:46;;;;;;;1999.90;999.90;;;15.70;99.90;;;;;;5032269;28;20838;-70
2022/05/21 08:08:13;;;;;;;1999.90;999.90;;;15.80;99.90;;;;;;5032380;28;20267;-71
2022/05/21 08:10:41;;;;;;;1999.90;999.90;;;15.80;99.90;;;;;;5032769;28;20260;-71
2022/05/21 08:13:07;;;;;;;1999.90;999.90;;;15.90;99.90;;;;;;5032512;28;20413;-70
2022/05/21 08:15:33;;;;;;;1999.90;999.90;;;15.80;99.90;;;;;;5032153;28;20459;-71
2022/05/21 08:18:00;;;;;;;1999.90;999.90;;;15.90;99.90;;;;;;5030091;28;20173;-70
2022/05/21 08:20:27;;;;;;;1999.90;999.90;;;16.00;99.90;;;;;;5031682;28;20921;-72
2022/05/21 08:28:21;;;;;;;1999.90;999.90;;;16.10;99.90;;;;;;5032165;28;20982;-70
2022/05/21 08:30:48;;;;;;;1999.90;999.90;;;16.10;99.90;;;;;;5031164;28;20438;-70
2022/05/21 08:33:16;;;;;;;1999.90;999.90;;;16.20;99.90;;;;;;5032098;28;20279;-70
2022/05/21 08:35:42;;;;;;;1999.90;999.90;;;16.20;99.90;;;;;;5031793;28;20439;-70
2022/05/21 08:38:09;;;;;;;1999.90;999.90;;;16.20;99.90;;;;;;5031599;28;20410;-70
2022/05/21 08:40:38;;;;;;;1999.90;999.90;;;16.30;99.90;;;;;;5031806;28;20249;-70
2022/05/21 08:43:05;;;;;;;1999.90;999.90;;;16.40;99.90;;;;;;5031721;28;20415;-70
2022/05/21 08:45:59;;;;;;;1999.90;999.90;;;16.30;99.90;;;;;;5031313;28;20894;-71
2022/05/21 08:48:27;;;;;;;1999.90;999.90;;;16.40;99.90;;;;;;4995448;28;20423;-70
2022/05/21 08:50:54;;;;;;;1999.90;999.90;;;16.30;99.90;;;;;;5031603;28;20474;-70
2022/05/21 08:53:25;;;;;;;1999.90;999.90;;;16.40;99.90;;;;;;5031088;28;20499;-70
2022/05/21 08:55:54;;;;;;;1999.90;999.90;;;16.60;99.90;;;;;;5031267;28;20470;-70
2022/05/21 08:58:50;;;;;;;1999.90;999.90;;;16.80;99.90;;;;;;5031713;28;20409;-70
2022/05/21 09:01:21;;;;;;;1999.90;999.90;;;16.90;99.90;;;;;;5030274;28;20982;-70
2022/05/21 09:03:50;;;;;;;1999.90;999.90;;;17.00;99.90;;;;;;5030719;28;20403;-70
2022/05/21 09:06:18;;;;;;;1999.90;999.90;;;17.00;99.90;;;;;;5031284;28;21016;-70
2022/05/21 09:08:50;;;;;;;1999.90;999.90;;;17.10;99.90;;;;;;5031047;28;20399;-70
2022/05/21 09:11:40;;;;;;;1999.90;999.90;;;17.10;99.90;;;;;;5031264;28;20923;-70
2022/05/21 09:14:15;;;;;;;1999.90;999.90;;;17.00;99.90;;;;;;5030859;28;20415;-70
2022/05/21 09:16:55;;;;;;;1999.90;999.90;;;17.10;99.90;;;;;;5030766;28;20457;-70
2022/05/21 09:19:23;;;;;;;1999.90;999.90;;;17.10;99.90;;;;;;5031400;28;20417;-70
2022/05/21 09:21:58;;;;;;;1999.90;999.90;;;17.00;99.90;;;;;;5031384;28;20434;-70
2022/05/21 09:24:38;;;;;;;1999.90;999.90;;;17.00;99.90;;;;;;5030853;28;20414;-70
2022/05/21 09:27:09;;;;;;;1999.90;999.90;;;17.20;99.90;;;;;;5031219;28;20403;-70
2022/05/21 09:29:36;;;;;;;1999.90;999.90;;;17.20;99.90;;;;;;5030739;28;20448;-70
2022/05/21 09:32:32;;;;;;;1999.90;999.90;;;17.10;99.90;;;;;;5030586;28;20939;-70
2022/05/21 09:35:08;;;;;;;1999.90;999.90;;;16.80;99.90;;;;;;5030514;28;20564;-70
2022/05/21 09:37:33;;;;;;;1999.90;999.90;;;16.90;99.90;;;;;;5030672;28;20431;-71
2022/05/21 09:40:00;;;;;;;1999.90;999.90;;;17.30;99.90;;;;;;5031312;28;20410;-70
2022/05/21 09:45:23;;;;;;;1999.90;999.90;;;17.40;99.90;;;;;;5030760;28;20460;-70
2022/05/21 09:48:04;;;;;;;1999.90;999.90;;;17.50;99.90;;;;;;5031181;28;20413;-70
2022/05/21 09:50:42;;;;;;;1999.90;999.90;;;17.70;99.90;;;;;;5030820;28;20420;-70
2022/05/21 09:53:29;;;;;;;1999.90;999.90;;;17.90;99.90;;;;;;5030437;28;20774;-70
2022/05/21 09:56:22;;;;;;;1999.90;999.90;;;18.10;99.90;;;;;;5030502;28;20445;-70
2022/05/21 09:58:51;;;;;;;1999.90;999.90;;;18.20;99.90;;;;;;5031071;28;20409;-70
2022/05/21 10:01:46;;;;;;;1999.90;999.90;;;18.30;99.90;;;;;;5030447;28;20428;-70
2022/05/21 10:04:12;;;;;;;1999.90;999.90;;;18.40;99.90;;;;;;5030628;28;20427;-70
2022/05/21 10:06:44;;;;;;;1999.90;999.90;;;18.50;99.90;;;;;;5030523;28;20950;-70
2022/05/21 10:12:15;;;;;;;1999.90;999.90;;;19.00;99.90;;;;;;5030842;28;20497;-70
2022/05/21 10:14:59;;;;;;;1999.90;999.90;;;19.10;99.90;;;;;;5031264;28;20423;-70
2022/05/21 10:17:39;;;;;;;1999.90;999.90;;;19.00;99.90;;;;;;5035103;28;20405;-71
2022/05/21 10:20:28;;;;;;;1999.90;999.90;;;19.10;99.90;;;;;;5034896;28;20406;-70
2022/05/21 10:23:21;;;;;;;1999.90;999.90;;;19.20;99.90;;;;;;5034301;28;20406;-71
2022/05/21 10:26:02;;;;;;;1999.90;999.90;;;19.30;99.90;;;;;;5033518;28;20929;-70
2022/05/21 10:28:55;;;;;;;1999.90;999.90;;;19.40;99.90;;;;;;5034861;28;20404;-70
2022/05/21 10:31:36;;;;;;;1999.90;999.90;;;19.70;99.90;;;;;;5034214;28;20986;-70
2022/05/21 10:34:21;;;;;;;1999.90;999.90;;;19.60;99.90;;;;;;5034066;28;20409;-70
2022/05/21 10:37:05;;;;;;;1999.90;999.90;;;19.30;99.90;;;;;;5033912;28;20517;-70
2022/05/21 10:39:53;;;;;;;1999.90;999.90;;;19.10;99.90;;;;;;5034626;28;20486;-70
2022/05/21 10:42:43;;;;;;;1999.90;999.90;;;18.90;99.90;;;;;;5034391;28;20937;-70
2022/05/21 10:45:27;;;;;;;1999.90;999.90;;;19.10;99.90;;;;;;5033788;28;20901;-70
2022/05/21 10:48:12;;;;;;;1999.90;999.90;;;19.30;99.90;;;;;;5034356;28;20497;-70
2022/05/21 10:50:44;;;;;;;1999.90;999.90;;;19.60;99.90;;;;;;5034434;28;20407;-70
2022/05/21 10:53:24;;;;;;;1999.90;999.90;;;19.60;99.90;;;;;;5033669;28;20887;-70
2022/05/21 10:56:21;;;;;;;1999.90;999.90;;;19.80;99.90;;;;;;5034295;28;20865;-70
2022/05/21 10:58:52;;;;;;;1999.90;999.90;;;19.60;99.90;;;;;;5027542;28;20426;-70
2022/05/21 11:01:39;;;;;;;1999.90;999.90;;;19.60;99.90;;;;;;5034213;28;20518;-70
2022/05/21 11:04:19;;;;;;;1999.90;999.90;;;19.50;99.90;;;;;;5034043;28;20564;-70
2022/05/21 11:07:18;;;;;;;1999.90;999.90;;;19.40;99.90;;;;;;5033686;28;20415;-70
2022/05/21 11:10:05;;;;;;;1999.90;999.90;;;19.10;99.90;;;;;;5034253;28;20502;-70
2022/05/21 11:12:39;;;;;;;1999.90;999.90;;;19.00;99.90;;;;;;5033855;28;20775;-70
2022/05/21 11:15:26;;;;;;;1999.90;999.90;;;19.00;99.90;;;;;;5033495;28;20452;-70
2022/05/21 11:17:57;;;;;;;1999.90;999.90;;;18.80;99.90;;;;;;5034060;28;20805;-70
2022/05/21 11:20:32;;;;;;;1999.90;999.90;;;19.10;99.90;;;;;;5033990;28;20493;-70
2022/05/21 11:23:19;;;;;;;1999.90;999.90;;;19.40;99.90;;;;;;5034049;28;20434;-70
2022/05/21 11:26:10;;;;;;;1999.90;999.90;;;19.80;99.90;;;;;;5033040;28;20417;-70
2022/05/21 11:28:50;;;;;;;1999.90;999.90;;;19.80;99.90;;;;;;5022569;28;20432;-70
2022/05/21 11:37:20;;;;;;;1999.90;999.90;;;20.10;99.90;;;;;;5033780;28;20487;-70
2022/05/21 11:39:42;;;;;;;1999.90;999.90;;;20.50;99.90;;;;;;5033858;28;20425;-70
2022/05/21 11:42:11;;;;;;;1999.90;999.90;;;20.30;99.90;;;;;;5033307;28;20427;-70
2022/05/21 11:44:58;;;;;;;1999.90;999.90;;;20.20;99.90;;;;;;5032685;28;20176;-70
2022/05/21 11:47:26;;;;;;;1999.90;999.90;;;20.20;99.90;;;;;;5033504;28;20403;-70
2022/05/21 11:49:58;;;;;;;1999.90;999.90;;;20.10;99.90;;;;;;5033150;28;20402;-70
2022/05/21 11:52:26;;;;;;;1999.90;999.90;;;20.00;99.90;;;;;;5031719;28;20475;-71
2022/05/21 11:54:55;;;;;;;1999.90;999.90;;;20.40;99.90;;;;;;5032751;28;20407;-71
2022/05/21 11:57:41;;;;;;;1999.90;999.90;;;20.60;99.90;;;;;;5032592;28;20434;-71
2022/05/21 12:00:29;;;;;;;1999.90;999.90;;;20.60;99.90;;;;;;5033029;28;20399;-70
2022/05/21 12:02:58;;;;;;;1999.90;999.90;;;20.80;99.90;;;;;;5014805;28;20423;-71
2022/05/21 12:05:38;;;;;;;1999.90;999.90;;;20.60;99.90;;;;;;5032179;28;20753;-72
2022/05/21 12:08:25;;;;;;;1999.90;999.90;;;20.40;99.90;;;;;;5032732;28;20766;-71
2022/05/21 12:11:04;;;;;;;1999.90;999.90;;;20.00;99.90;;;;;;5018993;28;20774;-71
2022/05/21 12:13:33;;;;;;;1999.90;999.90;;;20.30;99.90;;;;;;5031748;28;20510;-70
2022/05/21 12:16:16;;;;;;;1999.90;999.90;;;21.20;99.90;;;;;;5031971;28;20456;-71
2022/05/21 12:18:42;;;;;;;1999.90;999.90;;;21.90;99.90;;;;;;5032244;28;20417;-70
2022/05/21 12:21:34;;;;;;;1999.90;999.90;;;22.60;99.90;;;;;;5031693;28;20428;-70
2022/05/21 12:24:02;;;;;;;1999.90;999.90;;;23.40;98.30;;;;;;4995192;28;20476;-70
2022/05/21 12:26:40;;;;;;;1999.90;999.90;;;23.90;91.80;;;;;;5031918;28;20451;-70
2022/05/21 12:29:09;;;;;;;1999.90;999.90;;;23.70;87.90;;;;;;5031191;28;20395;-70
2022/05/21 12:31:43;;;;;;;1999.90;999.90;;;23.50;90.50;;;;;;5031416;28;20418;-70
2022/05/21 12:34:27;;;;;;;1999.90;999.90;;;22.90;90.90;;;;;;5031719;28;20408;-70
2022/05/21 12:37:16;;;;;;;1999.90;999.90;;;22.40;88.10;;;;;;5031501;28;20443;-70
2022/05/21 12:40:12;;;;;;;1999.90;999.90;;;22.40;86.70;;;;;;5032146;28;20758;-70
2022/05/21 12:42:52;;;;;;;1999.90;999.90;;;22.10;84.40;;;;;;5031270;28;20452;-70
2022/05/21 12:45:32;;;;;;;1999.90;999.90;;;22.00;80.80;;;;;;5031723;28;20429;-70